createdAt,value
2017-11-24T00:01:07.538Z,12.70
2017-11-24T00:03:37.323Z,12.90
2017-11-24T00:06:06.312Z,13.00
2017-11-24T00:08:35.371Z,13.10
2017-11-24T00:11:03.996Z,13.10
2017-11-24T00:13:32.998Z,13.00
2017-11-24T00:16:01.594Z,13.00
2017-11-24T00:18:30.625Z,12.90
2017-11-24T00:21:00.349Z,12.90
2017-11-24T00:23:31.450Z,12.80
2017-11-24T00:26:00.138Z,12.80
2017-11-24T00:28:28.932Z,12.80
2017-11-24T00:30:57.904Z,12.70
2017-11-24T00:33:26.539Z,12.70
2017-11-24T00:35:55.189Z,12.70
2017-11-24T00:38:24.399Z,12.70
2017-11-24T00:40:54.815Z,12.70
2017-11-24T00:43:25.517Z,12.90
2017-11-24T00:45:55.683Z,13.10
2017-11-24T00:48:25.886Z,13.20
2017-11-24T00:50:55.496Z,13.10
2017-11-24T00:53:25.330Z,13.10
2017-11-24T00:55:55.421Z,13.00
2017-11-24T00:58:25.102Z,13.00
2017-11-24T01:00:54.412Z,12.90
2017-11-24T01:03:23.291Z,12.90
2017-11-24T01:05:51.799Z,12.90
2017-11-24T01:08:23.294Z,12.80
2017-11-24T01:10:52.743Z,12.80
2017-11-24T01:13:22.042Z,12.70
2017-11-24T01:15:51.448Z,12.70
2017-11-24T01:18:19.890Z,12.70
2017-11-24T01:20:48.356Z,12.80
2017-11-24T01:23:18.145Z,13.00
2017-11-24T01:25:47.443Z,13.10
2017-11-24T01:28:17.512Z,13.00
2017-11-24T01:30:46.181Z,13.00
2017-11-24T01:33:16.249Z,13.00
2017-11-24T01:35:44.537Z,12.90
2017-11-24T01:38:12.724Z,12.90
2017-11-24T01:40:41.061Z,12.80
2017-11-24T01:43:10.674Z,12.80
2017-11-24T01:45:40.904Z,12.70
2017-11-24T01:48:10.991Z,12.70
2017-11-24T01:50:39.776Z,12.70
2017-11-24T01:53:08.844Z,12.60
2017-11-24T01:55:43.257Z,12.60
2017-11-24T01:58:14.812Z,12.70
2017-11-24T02:00:47.853Z,12.80
2017-11-24T02:03:20.540Z,12.90
2017-11-24T02:05:49.494Z,13.00
2017-11-24T02:08:19.749Z,13.00
2017-11-24T02:10:52.150Z,12.90
2017-11-24T02:13:23.449Z,12.90
2017-11-24T02:15:53.458Z,12.80
2017-11-24T02:18:22.934Z,12.80
2017-11-24T02:20:52.078Z,12.70
2017-11-24T02:23:22.651Z,12.70
2017-11-24T02:25:51.279Z,12.60
2017-11-24T02:28:19.601Z,12.60
2017-11-24T02:30:47.894Z,12.60
2017-11-24T02:33:16.961Z,12.50
2017-11-24T02:35:45.287Z,12.50
2017-11-24T02:38:15.511Z,12.50
2017-11-24T02:40:45.965Z,12.60
2017-11-24T02:43:17.019Z,12.80
2017-11-24T02:45:48.288Z,12.90
2017-11-24T02:48:16.412Z,12.90
2017-11-24T02:50:45.272Z,12.90
2017-11-24T02:53:13.612Z,12.90
2017-11-24T02:55:41.754Z,12.80
2017-11-24T02:58:10.272Z,12.70
2017-11-24T03:00:39.715Z,12.60
2017-11-24T03:03:08.816Z,12.60
2017-11-24T03:05:37.361Z,12.50
2017-11-24T03:08:08.639Z,12.50
2017-11-24T03:10:37.104Z,12.40
2017-11-24T03:13:05.709Z,12.40
2017-11-24T03:15:35.757Z,12.50
2017-11-24T03:18:04.132Z,12.70
2017-11-24T03:20:32.809Z,12.80
2017-11-24T03:23:01.732Z,12.90
2017-11-24T03:25:30.901Z,12.90
2017-11-24T03:28:00.177Z,12.80
2017-11-24T03:30:29.262Z,12.70
2017-11-24T03:32:58.077Z,12.60
2017-11-24T03:35:26.559Z,12.50
2017-11-24T03:37:54.986Z,12.40
2017-11-24T03:40:24.431Z,12.20
2017-11-24T03:42:52.872Z,12.20
2017-11-24T03:45:21.238Z,12.20
2017-11-24T03:47:49.580Z,12.30
2017-11-24T03:50:17.986Z,12.40
2017-11-24T03:52:46.734Z,12.60
2017-11-24T03:55:15.430Z,12.70
2017-11-24T03:57:44.849Z,12.70
2017-11-24T04:00:13.814Z,12.70
2017-11-24T04:02:44.157Z,12.60
2017-11-24T04:05:12.387Z,12.50
2017-11-24T04:07:40.969Z,12.40
2017-11-24T04:10:09.411Z,12.40
2017-11-24T04:12:38.168Z,12.30
2017-11-24T04:15:07.338Z,12.20
2017-11-24T04:17:36.021Z,12.20
2017-11-24T04:20:04.913Z,12.10
2017-11-24T04:22:33.723Z,12.10
2017-11-24T04:25:03.036Z,12.20
2017-11-24T04:27:31.848Z,12.50
2017-11-24T04:30:01.191Z,12.50
2017-11-24T04:32:29.728Z,12.50
2017-11-24T04:34:58.512Z,12.50
2017-11-24T04:37:26.847Z,12.40
2017-11-24T04:39:55.039Z,12.20
2017-11-24T04:42:23.424Z,12.10
2017-11-24T04:44:52.770Z,11.90
2017-11-24T04:47:21.348Z,11.90
2017-11-24T04:49:49.664Z,11.90
2017-11-24T04:52:19.065Z,11.80
2017-11-24T04:54:47.338Z,12.00
2017-11-24T04:57:15.519Z,12.10
2017-11-24T04:59:43.795Z,12.40
2017-11-24T05:02:12.273Z,12.50
2017-11-24T05:04:42.304Z,12.50
2017-11-24T05:07:10.895Z,12.50
2017-11-24T05:09:39.276Z,12.40
2017-11-24T05:12:08.304Z,12.30
2017-11-24T05:14:37.380Z,12.20
2017-11-24T05:17:07.171Z,11.90
2017-11-24T05:19:35.950Z,11.90
2017-11-24T05:22:05.039Z,11.80
2017-11-24T05:24:33.962Z,11.70
2017-11-24T05:27:02.409Z,11.70
2017-11-24T05:29:31.744Z,11.80
2017-11-24T05:32:00.077Z,12.00
2017-11-24T05:34:28.124Z,12.20
2017-11-24T05:36:56.482Z,12.40
2017-11-24T05:39:25.393Z,12.40
2017-11-24T05:41:54.199Z,12.40
2017-11-24T05:44:24.376Z,12.30
2017-11-24T05:46:55.003Z,12.10
2017-11-24T05:49:26.612Z,12.10
2017-11-24T05:51:57.637Z,11.90
2017-11-24T05:54:27.437Z,11.80
2017-11-24T05:56:57.166Z,11.70
2017-11-24T05:59:26.340Z,11.60
2017-11-24T06:01:55.653Z,11.40
2017-11-24T06:04:24.601Z,11.50
2017-11-24T06:06:53.064Z,11.60
2017-11-24T06:09:21.840Z,11.80
2017-11-24T06:11:50.199Z,12.00
2017-11-24T06:14:19.166Z,12.20
2017-11-24T06:16:48.297Z,12.20
2017-11-24T06:19:17.177Z,12.20
2017-11-24T06:21:45.864Z,12.10
2017-11-24T06:24:14.759Z,12.00
2017-11-24T06:26:43.297Z,11.90
2017-11-24T06:29:13.232Z,11.80
2017-11-24T06:31:42.431Z,11.70
2017-11-24T06:34:12.532Z,11.60
2017-11-24T06:36:40.900Z,11.60
2017-11-24T06:39:12.128Z,11.40
2017-11-24T06:41:45.081Z,11.40
2017-11-24T06:44:15.070Z,11.60
2017-11-24T06:46:45.435Z,11.60
2017-11-24T06:49:15.774Z,11.80
2017-11-24T06:51:44.399Z,12.00
2017-11-24T06:54:12.735Z,12.10
2017-11-24T06:56:41.224Z,12.10
2017-11-24T06:59:11.269Z,11.90
2017-11-24T07:01:39.556Z,11.90
2017-11-24T07:04:07.837Z,11.80
2017-11-24T07:06:36.300Z,11.80
2017-11-24T07:09:04.715Z,11.70
2017-11-24T07:11:35.450Z,11.60
2017-11-24T07:14:05.995Z,11.50
2017-11-24T07:16:36.888Z,11.50
2017-11-24T07:19:07.676Z,11.40
2017-11-24T07:21:37.422Z,11.60
2017-11-24T07:24:06.036Z,11.60
2017-11-24T07:26:35.573Z,11.80
2017-11-24T07:29:04.360Z,12.00
2017-11-24T07:31:34.830Z,12.20
2017-11-24T07:34:07.122Z,12.10
2017-11-24T07:36:39.402Z,12.10
2017-11-24T07:39:11.360Z,12.00
2017-11-24T07:41:40.795Z,12.00
2017-11-24T07:44:11.965Z,11.80
2017-11-24T07:46:40.869Z,11.80
2017-11-24T07:49:09.982Z,11.70
2017-11-24T07:51:39.147Z,11.60
2017-11-24T07:54:08.104Z,11.60
2017-11-24T07:56:36.717Z,11.50
2017-11-24T07:59:05.845Z,11.50
2017-11-24T08:01:36.134Z,11.60
2017-11-24T08:04:06.766Z,11.90
2017-11-24T08:06:37.973Z,12.20
2017-11-24T08:09:07.671Z,12.20
2017-11-24T08:11:37.471Z,12.20
2017-11-24T08:14:06.893Z,12.20
2017-11-24T08:16:36.199Z,12.10
2017-11-24T08:19:04.806Z,12.00
2017-11-24T08:21:33.165Z,11.90
2017-11-24T08:24:01.705Z,11.90
2017-11-24T08:26:30.665Z,11.80
2017-11-24T08:28:59.163Z,11.70
2017-11-24T08:31:27.608Z,11.70
2017-11-24T08:33:57.026Z,11.60
2017-11-24T08:36:25.430Z,11.60
2017-11-24T08:38:53.734Z,11.90
2017-11-24T08:41:23.560Z,12.50
2017-11-24T08:43:53.392Z,12.40
2017-11-24T08:46:29.726Z,12.60
2017-11-24T08:49:03.208Z,12.60
2017-11-24T08:51:34.339Z,12.50
2017-11-24T08:54:05.278Z,12.50
2017-11-24T08:56:36.222Z,12.40
2017-11-24T08:59:07.546Z,12.40
2017-11-24T09:01:38.148Z,12.30
2017-11-24T09:04:09.015Z,12.30
2017-11-24T09:06:40.125Z,12.30
2017-11-24T09:09:11.892Z,12.20
2017-11-24T09:11:40.561Z,12.10
2017-11-24T09:14:09.502Z,12.20
2017-11-24T09:16:38.424Z,12.30
2017-11-24T09:19:08.654Z,12.70
2017-11-24T09:21:37.605Z,12.60
2017-11-24T09:24:06.403Z,12.80
2017-11-24T09:26:35.603Z,12.80
2017-11-24T09:29:03.961Z,12.80
2017-11-24T09:31:33.503Z,12.80
2017-11-24T09:34:03.308Z,12.80
2017-11-24T09:36:33.916Z,12.80
2017-11-24T09:39:04.709Z,12.80
2017-11-24T09:41:33.333Z,12.80
2017-11-24T09:44:03.326Z,12.80
2017-11-24T09:46:34.401Z,12.80
2017-11-24T09:49:04.623Z,12.90
2017-11-24T09:51:39.437Z,12.90
2017-11-24T09:54:08.524Z,13.00
2017-11-24T09:56:38.231Z,13.10
2017-11-24T09:59:08.225Z,13.30
2017-11-24T10:01:37.925Z,13.40
2017-11-24T10:04:10.224Z,13.50
2017-11-24T10:06:42.232Z,13.50
2017-11-24T10:09:13.932Z,13.50
2017-11-24T10:11:45.330Z,13.50
2017-11-24T10:14:14.593Z,13.60
2017-11-24T10:16:44.189Z,13.60
2017-11-24T10:19:14.192Z,13.60
2017-11-24T10:21:48.751Z,13.60
2017-11-24T10:24:21.327Z,13.70
2017-11-24T10:26:51.856Z,13.70
2017-11-24T10:29:24.190Z,13.80
2017-11-24T10:31:54.693Z,13.80
2017-11-24T10:34:24.227Z,13.80
2017-11-24T10:36:53.624Z,14.00
2017-11-24T10:39:25.726Z,14.10
2017-11-24T10:41:56.429Z,14.20
2017-11-24T10:44:24.614Z,14.20
2017-11-24T10:46:53.700Z,14.30
2017-11-24T10:49:24.502Z,14.30
2017-11-24T10:51:53.089Z,14.30
2017-11-24T10:54:21.522Z,14.30
2017-11-24T10:56:53.546Z,14.30
2017-11-24T10:59:24.945Z,14.40
2017-11-24T11:01:56.347Z,14.40
2017-11-24T11:04:27.538Z,14.40
2017-11-24T11:06:57.191Z,14.50
2017-11-24T11:09:26.145Z,14.50
2017-11-24T11:11:55.792Z,14.50
2017-11-24T11:14:25.427Z,14.50
2017-11-24T11:16:55.325Z,14.60
2017-11-24T11:19:25.625Z,14.80
2017-11-24T11:21:55.721Z,14.80
2017-11-24T11:24:27.220Z,14.80
2017-11-24T11:26:56.144Z,14.80
2017-11-24T11:29:27.174Z,14.80
2017-11-24T11:31:58.381Z,14.90
2017-11-24T11:34:28.875Z,14.90
2017-11-24T11:36:59.318Z,14.90
2017-11-24T11:39:29.218Z,14.90
2017-11-24T11:41:58.817Z,14.90
2017-11-24T11:44:28.464Z,15.00
2017-11-24T11:46:59.220Z,15.00
2017-11-24T11:49:29.022Z,15.00
2017-11-24T11:51:58.817Z,14.90
2017-11-24T11:54:29.916Z,15.10
2017-11-24T11:56:59.388Z,15.10
2017-11-24T11:59:29.894Z,15.10
2017-11-24T12:01:59.096Z,15.20
2017-11-24T12:04:29.526Z,15.20
2017-11-24T12:06:59.029Z,15.20
2017-11-24T12:09:27.937Z,15.20
2017-11-24T12:11:57.925Z,15.20
2017-11-24T12:14:29.241Z,15.20
2017-11-24T12:17:00.235Z,15.20
2017-11-24T12:19:29.264Z,15.20
2017-11-24T12:22:00.332Z,15.20
2017-11-24T12:24:29.830Z,15.20
2017-11-24T12:27:00.729Z,15.20
2017-11-24T12:29:36.293Z,15.20
2017-11-24T12:32:08.888Z,15.10
2017-11-24T12:34:41.095Z,15.20
2017-11-24T12:37:10.212Z,15.30
2017-11-24T12:39:39.987Z,15.30
2017-11-24T12:42:09.886Z,15.30
2017-11-24T12:44:39.787Z,15.30
2017-11-24T12:47:15.784Z,15.40
2017-11-24T12:49:51.593Z,15.40
2017-11-24T12:52:27.092Z,15.40
2017-11-24T12:55:02.990Z,15.40
2017-11-24T12:57:35.266Z,15.40
2017-11-24T13:00:08.207Z,15.40
2017-11-24T13:02:40.432Z,15.40
2017-11-24T13:05:13.349Z,15.50
2017-11-24T13:07:41.888Z,15.50
2017-11-24T13:10:11.435Z,15.50
2017-11-24T13:12:40.979Z,15.50
2017-11-24T13:15:10.587Z,15.40
2017-11-24T13:17:39.729Z,15.40
2017-11-24T13:20:08.618Z,15.50
2017-11-24T13:22:38.723Z,15.60
2017-11-24T13:25:08.824Z,15.60
2017-11-24T13:27:40.287Z,15.60
2017-11-24T13:30:12.612Z,15.60
2017-11-24T13:32:43.824Z,15.60
2017-11-24T13:35:15.312Z,15.60
2017-11-24T13:37:47.914Z,15.60
2017-11-24T13:40:20.117Z,15.60
2017-11-24T13:42:53.314Z,15.70
2017-11-24T13:45:25.811Z,15.70
2017-11-24T13:47:55.996Z,15.70
2017-11-24T13:50:25.333Z,15.70
2017-11-24T13:55:30.564Z,15.60
2017-11-24T13:58:01.016Z,15.60
2017-11-24T14:00:30.608Z,15.70
2017-11-24T14:03:01.006Z,15.80
2017-11-24T14:05:30.707Z,15.80
2017-11-24T14:08:00.406Z,15.90
2017-11-24T14:10:29.805Z,15.90
2017-11-24T14:12:59.007Z,15.90
2017-11-24T14:15:28.709Z,15.90
2017-11-24T14:17:59.186Z,15.90
2017-11-24T14:20:29.290Z,15.90
2017-11-24T14:22:59.541Z,15.90
2017-11-24T14:25:30.041Z,15.90
2017-11-24T14:28:01.747Z,15.90
2017-11-24T14:33:17.242Z,15.80
2017-11-24T14:35:47.644Z,15.80
2017-11-24T14:38:17.915Z,15.80
2017-11-24T14:40:48.616Z,15.90
2017-11-24T14:43:18.815Z,15.90
2017-11-24T14:45:49.226Z,16.00
2017-11-24T14:48:28.416Z,16.00
2017-11-24T14:51:01.618Z,16.00
2017-11-24T14:53:39.625Z,16.00
2017-11-24T14:56:17.214Z,16.00
2017-11-24T14:58:50.280Z,16.00
2017-11-24T15:01:20.585Z,16.00
2017-11-24T15:03:50.495Z,16.00
2017-11-24T15:06:19.150Z,16.00
2017-11-24T15:08:50.019Z,15.90
2017-11-24T15:11:19.819Z,15.80
2017-11-24T15:13:49.020Z,15.80
2017-11-24T15:16:19.342Z,15.80
2017-11-24T15:18:54.012Z,15.80
2017-11-24T15:21:26.208Z,15.80
2017-11-24T15:23:56.007Z,15.80
2017-11-24T15:26:27.406Z,15.90
2017-11-24T15:28:57.899Z,16.00
2017-11-24T15:31:28.401Z,15.90
2017-11-24T15:33:59.099Z,15.90
2017-11-24T15:36:28.803Z,15.90
2017-11-24T15:38:58.407Z,15.90
2017-11-24T15:41:30.007Z,15.80
2017-11-24T15:43:59.504Z,15.80
2017-11-24T15:46:29.413Z,15.80
2017-11-24T15:49:02.403Z,15.70
2017-11-24T15:51:36.208Z,15.70
2017-11-24T15:54:06.010Z,15.60
2017-11-24T15:56:37.402Z,15.50
2017-11-24T15:59:07.887Z,15.40
2017-11-24T16:01:38.484Z,15.50
2017-11-24T16:04:08.162Z,15.60
2017-11-24T16:06:38.136Z,15.70
2017-11-24T16:09:07.648Z,15.70
2017-11-24T16:11:37.549Z,15.60
2017-11-24T16:14:07.916Z,15.60
2017-11-24T16:16:38.620Z,15.60
2017-11-24T16:19:08.716Z,15.60
2017-11-24T16:21:39.314Z,15.60
2017-11-24T16:24:11.118Z,15.60
2017-11-24T16:26:41.125Z,15.60
2017-11-24T16:29:11.022Z,15.50
2017-11-24T16:31:41.627Z,15.40
2017-11-24T16:34:13.513Z,15.40
2017-11-24T16:36:46.525Z,15.40
2017-11-24T16:39:25.414Z,15.40
2017-11-24T16:41:56.312Z,15.40
2017-11-24T16:44:26.311Z,15.50
2017-11-24T16:46:55.526Z,15.50
2017-11-24T16:49:25.021Z,15.50
2017-11-24T16:51:56.112Z,15.50
2017-11-24T16:54:26.011Z,15.50
2017-11-24T16:56:55.611Z,15.50
2017-11-24T16:59:25.817Z,15.40
2017-11-24T17:01:58.817Z,15.40
2017-11-24T17:04:29.119Z,15.40
2017-11-24T17:06:59.516Z,15.40
2017-11-24T17:09:27.365Z,15.30
2017-11-24T17:11:56.951Z,15.20
2017-11-24T17:14:27.777Z,15.20
2017-11-24T17:16:57.579Z,15.10
2017-11-24T17:19:27.523Z,15.20
2017-11-24T17:21:57.815Z,15.30
2017-11-24T17:24:28.984Z,15.40
2017-11-24T17:26:59.682Z,15.40
2017-11-24T17:29:34.774Z,15.40
2017-11-24T17:32:06.173Z,15.30
2017-11-24T17:34:39.975Z,15.30
2017-11-24T17:37:09.874Z,15.30
2017-11-24T17:39:38.781Z,15.30
2017-11-24T17:42:09.995Z,15.20
2017-11-24T17:44:39.574Z,15.20
2017-11-24T17:47:09.280Z,15.10
2017-11-24T17:49:47.473Z,15.00
2017-11-24T17:52:26.478Z,15.00
2017-11-24T17:57:50.474Z,15.00
2017-11-24T18:00:20.372Z,15.10
2017-11-24T18:02:51.872Z,15.10
2017-11-24T18:05:25.753Z,15.10
2017-11-24T18:07:56.952Z,15.10
2017-11-24T18:10:26.864Z,15.10
2017-11-24T18:12:56.951Z,15.10
2017-11-24T18:15:26.962Z,15.10
2017-11-24T18:18:01.152Z,15.10
2017-11-24T18:25:52.645Z,15.00
2017-11-24T18:28:26.442Z,15.00
2017-11-24T18:30:56.041Z,15.00
2017-11-24T18:33:25.937Z,14.90
2017-11-24T18:35:55.570Z,14.90
2017-11-24T18:38:26.369Z,14.90
2017-11-24T18:40:57.561Z,15.00
2017-11-24T18:43:27.563Z,15.00
2017-11-24T18:45:57.962Z,15.00
2017-11-24T18:48:29.468Z,15.00
2017-11-24T18:50:59.863Z,14.90
2017-11-24T18:53:29.862Z,14.90
2017-11-24T18:56:00.065Z,14.90
2017-11-24T18:58:29.993Z,14.80
2017-11-24T19:01:00.965Z,14.80
2017-11-24T19:03:35.059Z,14.80
2017-11-24T19:06:06.333Z,14.80
2017-11-24T19:08:37.934Z,14.80
2017-11-24T19:11:08.035Z,14.70
2017-11-24T19:13:38.796Z,14.70
2017-11-24T19:16:09.575Z,14.70
2017-11-24T19:18:39.575Z,14.70
2017-11-24T19:21:09.784Z,14.70
2017-11-24T19:26:25.198Z,14.70
2017-11-24T19:28:55.992Z,14.70
2017-11-24T19:31:26.493Z,14.60
2017-11-24T19:33:56.599Z,14.60
2017-11-24T19:36:29.315Z,14.60
2017-11-24T19:39:02.402Z,14.60
2017-11-24T19:41:35.190Z,14.60
2017-11-24T19:44:07.490Z,14.60
2017-11-24T19:46:41.133Z,14.60
2017-11-24T19:49:12.209Z,14.50
2017-11-24T19:51:44.634Z,14.50
2017-11-24T19:54:18.871Z,14.50
2017-11-24T19:56:48.971Z,14.60
2017-11-24T19:59:20.369Z,14.60
2017-11-24T20:01:50.778Z,14.60
2017-11-24T20:04:21.477Z,14.60
2017-11-24T20:06:53.796Z,14.60
2017-11-24T20:09:31.282Z,14.60
2017-11-24T20:14:46.800Z,14.60
2017-11-24T20:17:19.174Z,14.50
2017-11-24T20:19:54.267Z,14.50
2017-11-24T20:22:27.073Z,14.50
2017-11-24T20:24:59.175Z,14.50
2017-11-24T20:27:39.450Z,14.50
2017-11-24T20:30:13.857Z,14.50
2017-11-24T20:32:43.341Z,14.40
2017-11-24T20:35:17.648Z,14.50
2017-11-24T20:37:47.976Z,14.50
2017-11-24T20:40:18.855Z,14.50
2017-11-24T20:42:56.344Z,14.60
2017-11-24T20:45:35.744Z,14.50
2017-11-24T20:48:04.655Z,14.50
2017-11-24T20:50:36.028Z,14.60
2017-11-24T20:53:08.597Z,14.70
2017-11-24T20:55:43.524Z,14.70
2017-11-24T20:58:13.255Z,14.90
2017-11-24T21:00:44.310Z,15.10
2017-11-24T21:03:25.346Z,15.20
2017-11-24T21:06:08.822Z,15.40
2017-11-24T21:08:50.032Z,15.50
2017-11-24T21:11:34.342Z,15.60
2017-11-24T21:19:26.140Z,15.70
2017-11-24T21:21:58.203Z,15.60
2017-11-24T21:24:29.450Z,15.60
2017-11-24T21:27:02.555Z,15.60
2017-11-24T21:29:36.779Z,15.60
2017-11-24T21:32:09.910Z,15.80
2017-11-24T21:34:42.673Z,15.80
2017-11-24T21:37:14.119Z,15.70
2017-11-24T21:39:46.222Z,15.70
2017-11-24T21:42:20.757Z,15.60
2017-11-24T21:44:51.483Z,15.60
2017-11-24T21:47:30.173Z,15.60
2017-11-24T21:50:00.133Z,15.60
2017-11-24T21:52:34.863Z,15.40
2017-11-24T21:55:05.232Z,15.30
2017-11-24T21:57:36.727Z,15.10
2017-11-24T22:00:07.866Z,15.10
2017-11-24T22:02:37.114Z,15.00
2017-11-24T22:05:09.374Z,15.00
2017-11-24T22:07:41.172Z,15.00
2017-11-24T22:10:13.247Z,15.10
2017-11-24T22:12:44.097Z,15.20
2017-11-24T22:15:20.128Z,15.30
2017-11-24T22:17:50.875Z,15.30
2017-11-24T22:20:22.772Z,15.20
2017-11-24T22:22:53.971Z,15.30
2017-11-24T22:25:25.978Z,15.30
2017-11-24T22:27:58.270Z,15.00
2017-11-24T22:30:35.251Z,15.00
2017-11-24T22:33:09.651Z,15.00
2017-11-24T22:35:42.683Z,14.80
2017-11-24T22:38:17.350Z,14.70
2017-11-24T22:40:47.443Z,14.60
2017-11-24T22:43:17.644Z,14.60
2017-11-24T22:45:47.451Z,14.70
2017-11-24T22:48:17.644Z,14.80
2017-11-24T22:50:48.447Z,14.80
2017-11-24T22:53:19.341Z,14.80
2017-11-24T22:55:50.044Z,14.80
2017-11-24T22:58:24.451Z,14.80
2017-11-24T23:00:54.660Z,14.80
2017-11-24T23:03:26.459Z,14.80
2017-11-24T23:05:56.554Z,14.80
2017-11-24T23:08:26.554Z,14.80
2017-11-24T23:10:57.755Z,14.80
2017-11-24T23:13:27.705Z,14.70
2017-11-24T23:15:57.784Z,14.60
2017-11-24T23:18:30.484Z,14.50
2017-11-24T23:21:04.508Z,14.70
2017-11-24T23:23:35.593Z,14.70
2017-11-24T23:26:05.993Z,14.80
2017-11-24T23:28:36.299Z,14.80
2017-11-24T23:33:55.294Z,14.80
2017-11-24T23:36:27.299Z,14.80
2017-11-24T23:39:00.201Z,14.80
2017-11-24T23:41:31.983Z,14.80
2017-11-24T23:44:12.290Z,14.80
2017-11-24T23:46:42.890Z,14.80
2017-11-24T23:51:51.191Z,14.70
2017-11-24T23:54:20.358Z,14.60
2017-11-24T23:56:51.305Z,14.50
2017-11-24T23:59:21.451Z,14.50
